Keauhou, HI (96739)

3:17 PM HST on March 26, 2017 (GMT -1000)
Keauhou Bay, Kailua Kona | | Change Station
Active Advisory: High Surf Warning Active Notice: High Surf Warning

Elev 52 ft 19.56 °N, 155.96 °W | Updated 18 seconds ago

Partly Cloudy
Partly Cloudy
85.7 °F
Feels Like 91 °F
N
1.2
Wind Variable Wind from SSW
Gusts 3.0 mph

Today
High -- | Low -- °F
--% Chance of Precip.
Yesterday
High -- | Low -- °F
Precip. -- in
Pressure 30.06 in
Visibility 10.0 miles
Clouds Scattered Clouds 4500 ft
Heat Index 91 °F
Dew Point 71 °F
Humidity 61%
Rainfall 0.00 in
Snow Depth Not available.
6:22 AM 6:36 PM
Waning Crescent, 2% visible
METAR PHKO 270053Z 23009KT 10SM SCT045 28/19 A3006 RMK AO2 SLP178 T02780189
Pressure 30.06 in
Visibility 10.0 miles
Clouds Scattered Clouds 4500 ft
Heat Index 91 °F
Dew Point 71 °F
Humidity 61%
Rainfall 0.00 in
Snow Depth Not available.
6:22 AM 6:36 PM
Waning Crescent, 2% visible
METAR PHKO 270053Z 23009KT 10SM SCT045 28/19 A3006 RMK AO2 SLP178 T02780189

Get Your Daily Forecast Email!

Thanks for signing up!

Be on the lookout for a verification email in your inbox.

You'll start receiving severe weather alerts in your inbox..

×

10-Day Weather Forecast

Almanac

Astronomy

Mar. 26, 2017 Rise Set
Actual Time
Civil Twilight
Nautical Twilight
Astronomical Twilight
Moon
Length of Visible Light
Length of Day
Tomorrow will be .
, % of the Moon is Illuminated

Today's Extremes

State Highs State Lows

Community

WunderPhotos

Upload Photos

1,962,540 photos uploaded!

WunderBlog® & News

Nearby

Air Quality

  Air Quality AQ Index Pollutant
Not available.

Snow Depth

Station Depth Elevation

Earthquake Activity

City Distance Mag. Time & Date
Minimum magnitude displayed is 2.5.

Earthquake Activity

City Distance Mag. Time & Date
Minimum magnitude displayed is 2.5.

Coastal Water Temperatures

Place Temperature

Stations

Nearby Weather Stations

Station Location Temp. Windchill Dew Point Humidity Wind Precip. Elev Updated Type
                   

Watches & Warnings

High Surf Warning
Issued: 4:06 AM HST Mar. 26, 2017 – National Weather Service

... High surf warning remains in effect until 6 am HST Monday...

* surf... along west facing shores of The Big Island... 8 to 12
feet. The highest surf is expected along the coast extending
south from Kailua Kona to South Point.

* Timing... through tonight.

* Impacts... high... expect ocean water occasionally sweeping
across portions of beaches... very strong breaking waves... and
strong longshore and rip currents. Breaking waves may
occasionally impact harbors making navigating The Harbor
channel dangerous.

Precautionary/preparedness actions...

Large breaking surf... significant shorebreak... and dangerous
currents make entering the water very hazardous. Always heed
lifeguard advice and know your limits. When in doubt... do not go
out.